Time;durP1;ratioP1;P1;durP2;ratioP2;P2;SDS_P1;SDS_P2;PMS_P1;PMS_P2;Temp;Humidity;BMP_temperature;BMP_pressure;BME280_temperature;BME280_humidity;BME280_pressure;Samples;Min_cycle;Max_cycle;Signal;HPM_P1;HPM_P2
2022/05/30 00:01:26;;;;;;;7.73;4.40;;;;;;;12.77;83.68;100169.61;5306935;55;1141068;-71
2022/05/30 00:06:33;;;;;;;23.93;8.07;;;;;;;12.75;83.79;100171.08;5307303;55;1138983;-72
2022/05/30 00:11:39;;;;;;;25.47;10.03;;;;;;;12.76;83.63;100178.06;5270340;55;1141138;-70
2022/05/30 00:16:45;;;;;;;15.80;7.03;;;;;;;12.75;83.96;100175.55;5290533;55;1143160;-70
2022/05/30 00:21:53;;;;;;;12.07;5.73;;;;;;;12.76;84.21;100177.22;5218262;56;1141201;-69
2022/05/30 00:26:59;;;;;;;7.67;5.50;;;;;;;12.72;84.19;100171.35;5242748;55;1141323;-74
2022/05/30 00:32:06;;;;;;;8.83;5.57;;;;;;;12.64;84.12;100164.11;5307147;55;1138983;-72
2022/05/30 00:37:12;;;;;;;10.17;5.10;;;;;;;12.52;84.10;100168.38;5307105;55;1138916;-72
2022/05/30 00:42:23;;;;;;;7.70;4.30;;;;;;;12.38;84.28;100169.61;5306896;55;1141053;-69
2022/05/30 00:47:29;;;;;;;12.17;5.77;;;;;;;12.32;84.51;100176.33;5306813;55;1139019;-72
2022/05/30 00:52:39;;;;;;;9.83;6.10;;;;;;;12.26;84.55;100170.23;5306970;55;1141061;-69
2022/05/30 00:57:47;;;;;;;15.00;8.07;;;;;;;12.23;84.82;100166.53;5307126;55;1139016;-72
2022/05/30 01:08:18;;;;;;;16.77;8.57;;;;;;;12.07;84.90;100162.25;5306949;55;1141123;-73
2022/05/30 01:13:27;;;;;;;14.80;7.50;;;;;;;12.01;85.00;100161.49;5283564;55;1141069;-71
2022/05/30 01:18:38;;;;;;;9.13;4.97;;;;;;;11.98;85.16;100162.59;5218195;56;1138983;-73
2022/05/30 01:23:58;;;;;;;8.93;4.60;;;;;;;11.87;84.80;100160.55;5213504;56;1136909;-70
2022/05/30 01:29:34;;;;;;;21.63;8.07;;;;;;;11.84;84.86;100158.17;5254664;55;1136896;-73
2022/05/30 01:34:40;;;;;;;42.07;14.53;;;;;;;11.82;84.88;100159.63;5306936;55;1138976;-70
2022/05/30 01:39:48;;;;;;;28.20;11.27;;;;;;;11.83;85.47;100156.50;5306866;55;1141104;-71
2022/05/30 01:44:56;;;;;;;21.63;9.20;;;;;;;11.84;85.51;100158.17;5306755;55;1140951;-70
2022/05/30 01:50:04;;;;;;;11.38;6.37;;;;;;;11.80;85.08;100152.30;5306993;55;1138972;-74
2022/05/30 01:55:13;;;;;;;11.70;4.50;;;;;;;11.69;84.89;100148.89;5271180;55;1136992;-72
2022/05/30 02:00:23;;;;;;;9.97;4.60;;;;;;;11.51;84.45;100147.37;5305218;55;1141141;-69
2022/05/30 02:05:30;;;;;;;11.97;4.83;;;;;;;11.28;84.33;100142.77;5307094;55;1138924;-71
2022/05/30 02:10:37;;;;;;;8.40;4.20;;;;;;;11.10;84.49;100143.02;5267098;55;1140964;-73
2022/05/30 02:21:08;;;;;;;11.27;5.20;;;;;;;10.97;85.36;100136.62;5217962;56;1141085;-74
2022/05/30 02:26:14;;;;;;;10.40;5.33;;;;;;;10.84;85.74;100134.66;5228822;55;1141111;-71
2022/05/30 02:31:20;;;;;;;5.47;4.93;;;;;;;10.70;85.79;100134.96;5270129;55;1141133;-71
2022/05/30 02:36:44;;;;;;;10.63;4.67;;;;;;;10.60;86.16;100136.72;5306718;55;1138996;-71
2022/05/30 02:41:51;;;;;;;10.27;4.00;;;;;;;10.53;86.23;100143.85;5306538;55;1141297;-71
2022/05/30 02:46:59;;;;;;;9.10;5.07;;;;;;;10.60;86.78;100136.72;5217663;55;1141078;-70
2022/05/30 02:52:06;;;;;;;7.70;4.20;;;;;;;10.64;86.57;100138.14;5214272;56;1139037;-70
2022/05/30 02:57:12;;;;;;;13.10;4.60;;;;;;;10.64;87.01;100135.02;5141555;56;1138910;-68
2022/05/30 03:02:18;;;;;;;11.37;4.77;;;;;;;10.60;86.70;100133.59;5157676;56;1141250;-70
2022/05/30 03:07:25;;;;;;;15.60;5.63;;;;;;;10.55;87.14;100128.67;5174554;56;1141005;-70
2022/05/30 03:12:31;;;;;;;14.20;4.20;;;;;;;10.51;87.23;100128.59;5151012;56;1141122;-71
2022/05/30 03:17:37;;;;;;;9.00;4.40;;;;;;;10.53;87.09;100132.44;5164497;56;1141295;-72
2022/05/30 03:22:42;;;;;;;12.77;5.40;;;;;;;10.55;87.07;100137.92;5208922;56;1138917;-73
2022/05/30 03:28:05;;;;;;;10.37;4.83;;;;;;;10.55;87.07;100138.41;5215686;55;1141066;-70
2022/05/30 03:33:12;;;;;;;13.77;4.90;;;;;;;10.52;87.04;100134.24;5169785;56;1141229;-70
2022/05/30 03:38:18;;;;;;;21.60;5.43;;;;;;;10.48;87.25;100137.27;5163813;56;1141075;-71
2022/05/30 03:43:40;;;;;;;11.37;5.23;;;;;;;10.27;87.20;100138.55;5142517;56;1141029;-71
2022/05/30 03:48:46;;;;;;;13.17;6.10;;;;;;;10.14;87.60;100131.23;5062346;57;1141072;-72
2022/05/30 03:53:53;;;;;;;10.47;5.60;;;;;;;10.01;87.82;100139.81;5058645;57;1141079;-71
2022/05/30 03:58:59;;;;;;;9.50;5.33;;;;;;;9.98;88.42;100134.29;5058651;57;1141135;-73
2022/05/30 04:04:05;;;;;;;8.47;5.00;;;;;;;10.07;89.10;100131.40;5058458;57;1136821;-70
2022/05/30 04:09:11;;;;;;;9.73;5.20;;;;;;;10.12;89.62;100131.84;5078091;57;1136917;-74
2022/05/30 04:14:31;;;;;;;7.70;5.47;;;;;;;10.17;90.43;100133.16;5136096;56;1136994;-74
2022/05/30 04:19:41;;;;;;;10.33;6.10;;;;;;;10.31;91.31;100126.76;5141212;56;1136874;-69
2022/05/30 04:24:48;;;;;;;9.27;5.00;;;;;;;10.46;91.64;100130.77;5141214;56;1139305;-72
2022/05/30 04:29:54;;;;;;;16.63;5.23;;;;;;;10.63;91.45;100128.05;5141655;56;1136941;-74
2022/05/30 04:35:03;;;;;;;14.87;5.97;;;;;;;10.67;90.87;100129.95;5186713;57;1138968;-70
2022/05/30 04:40:13;;;;;;;9.37;5.50;;;;;;;10.68;89.90;100128.51;5222989;56;1139228;-70
2022/05/30 04:45:36;;;;;;;7.73;5.33;;;;;;;10.62;89.91;100124.20;4862724;59;1137061;-74
2022/05/30 04:50:53;;;;;;;11.33;6.00;;;;;;;10.62;90.15;100123.72;5023400;58;1135036;-72
2022/05/30 04:55:59;;;;;;;10.63;5.00;;;;;;;10.70;90.78;100115.97;5024188;58;1140966;-74
2022/05/30 05:01:10;;;;;;;10.33;5.80;;;;;;;10.80;90.95;100116.88;4973507;58;1141003;-72
2022/05/30 05:06:20;;;;;;;7.60;5.70;;;;;;;10.94;90.66;100122.32;4980983;58;1141163;-71
2022/05/30 05:11:35;;;;;;;10.10;5.40;;;;;;;11.08;91.18;100122.45;5051626;57;1139112;-71
2022/05/30 05:16:59;;;;;;;15.47;6.37;;;;;;;11.19;91.12;100119.23;4958973;58;1141082;-73
2022/05/30 05:22:06;;;;;;;12.37;6.23;;;;;;;11.24;91.07;100118.84;5032354;57;1141005;-70
2022/05/30 05:27:11;;;;;;;11.73;5.77;;;;;;;11.44;91.64;100133.00;4945288;58;1140982;-70
2022/05/30 05:32:17;;;;;;;9.23;6.00;;;;;;;11.65;91.19;100131.10;5111258;56;1141035;-70
2022/05/30 05:37:23;;;;;;;11.93;6.27;;;;;;;11.83;91.16;100131.33;5048183;58;1139260;-69
2022/05/30 05:42:30;;;;;;;13.57;6.67;;;;;;;11.93;91.04;100134.33;5070011;57;1141241;-72
2022/05/30 05:47:37;;;;;;;13.13;6.70;;;;;;;12.00;91.11;100128.01;5150395;57;1141122;-71
2022/05/30 05:52:42;;;;;;;7.90;5.53;;;;;;;12.06;90.99;100125.30;5171306;56;1141103;-73
2022/05/30 05:57:50;;;;;;;18.00;6.90;;;;;;;12.11;90.62;100124.38;5217900;56;1139129;-71
2022/05/30 06:02:56;;;;;;;11.57;6.50;;;;;;;12.21;91.41;100116.80;5217979;56;1141110;-70
2022/05/30 06:08:04;;;;;;;10.23;5.40;;;;;;;12.35;91.51;100130.13;5188763;56;1140998;-70
2022/05/30 06:13:17;;;;;;;8.83;5.87;;;;;;;12.46;90.41;100146.38;5192637;56;1141439;-73
2022/05/30 06:18:22;;;;;;;10.43;6.33;;;;;;;12.52;89.99;100148.00;5218198;56;1138966;-73
2022/05/30 06:23:29;;;;;;;12.53;6.40;;;;;;;12.59;89.51;100149.58;5218211;56;1141040;-73
2022/05/30 06:28:49;;;;;;;11.13;5.10;;;;;;;12.65;88.68;100151.69;5099246;56;1141177;-73
2022/05/30 06:33:55;;;;;;;8.83;4.83;;;;;;;12.63;89.24;100153.15;5194302;56;1141101;-74
2022/05/30 06:39:03;;;;;;;6.33;5.00;;;;;;;12.64;90.09;100152.66;5121092;57;1139095;-72
2022/05/30 06:44:10;;;;;;;6.03;5.00;;;;;;;12.78;90.18;100151.38;5098765;56;1139327;-73
2022/05/30 06:49:33;;;;;;;;;;;;;;;12.84;89.85;100148.14;5287818;55;1139069;-70
2022/05/30 06:54:39;;;;;;;8.17;4.67;;;;;;;13.01;88.45;100153.56;5163194;56;975651;-68
2022/05/30 06:59:46;;;;;;;6.73;4.50;;;;;;;13.07;88.46;100157.96;5130860;57;1134818;-69
2022/05/30 07:04:53;;;;;;;12.50;4.67;;;;;;;13.12;86.69;100152.58;5092609;57;1137100;-69
2022/05/30 07:10:17;;;;;;;4.12;3.72;;;;;;;12.94;86.28;100147.66;5156435;56;1138981;-74
2022/05/30 07:15:31;;;;;;;7.53;4.67;;;;;;;13.01;85.76;100158.87;5183054;56;1136885;-70
2022/05/30 07:20:37;;;;;;;6.57;4.27;;;;;;;13.12;85.79;100159.22;5178350;56;1136914;-69
2022/05/30 07:26:04;;;;;;;5.80;3.40;;;;;;;13.23;85.37;100160.88;5175345;56;1136892;-71
2022/05/30 07:31:29;;;;;;;7.73;4.50;;;;;;;13.45;84.94;100150.37;5195859;56;21400;-73
2022/05/30 07:36:52;;;;;;;4.60;3.27;;;;;;;13.78;85.56;100146.30;5079942;57;1134994;-74
2022/05/30 07:41:59;;;;;;;8.93;3.67;;;;;;;14.13;82.38;100145.03;5076897;57;1138986;-73
2022/05/30 07:47:11;;;;;;;6.03;3.17;;;;;;;14.37;82.67;100142.59;5167340;56;1139117;-70
2022/05/30 07:52:18;;;;;;;6.57;2.90;;;;;;;14.62;81.08;100141.52;5155312;56;1139196;-73
2022/05/30 07:57:53;;;;;;;2.50;2.30;;;;;;;14.91;78.99;100146.06;5152681;56;1138883;-74
2022/05/30 08:03:11;;;;;;;5.83;2.30;;;;;;;15.18;77.14;100135.75;5180524;56;1139216;-74
2022/05/30 08:08:17;;;;;;;7.80;2.30;;;;;;;15.42;73.96;100137.22;5216205;56;1139039;-69
2022/05/30 08:13:25;;;;;;;8.20;2.10;;;;;;;15.61;73.21;100139.31;5215144;56;1139291;-74
2022/05/30 08:18:36;;;;;;;11.67;3.07;;;;;;;15.74;73.34;100140.52;5215138;56;1138984;-72
2022/05/30 08:23:42;;;;;;;4.47;2.87;;;;;;;15.88;72.49;100145.77;5215444;56;1141354;-73
2022/05/30 08:28:48;;;;;;;2.93;2.30;;;;;;;16.04;72.69;100145.78;5167911;56;1139244;-70
2022/05/30 08:33:54;;;;;;;7.43;2.13;;;;;;;16.31;66.42;100135.34;5176104;56;1139139;-72
2022/05/30 08:44:29;;;;;;;5.73;2.33;;;;;;;16.84;66.61;100125.51;5167169;56;1138965;-72
2022/05/30 08:49:52;;;;;;;2.00;1.80;;;;;;;17.10;62.91;100123.98;5209173;56;1139366;-71
2022/05/30 08:55:32;;;;;;;4.47;1.93;;;;;;;17.13;64.01;100118.77;5159067;56;1138979;-74
2022/05/30 09:00:53;;;;;;;2.57;1.73;;;;;;;17.35;62.12;100122.56;5158366;57;1137222;-73
2022/05/30 09:06:14;;;;;;;8.33;2.47;;;;;;;17.22;61.95;100119.94;5183075;56;1136913;-72
2022/05/30 09:11:39;;;;;;;4.97;1.80;;;;;;;17.25;60.72;100117.93;5234674;55;1137130;-74
2022/05/30 09:16:54;;;;;;;6.00;2.40;;;;;;;17.26;62.81;100114.26;5306437;55;1134807;-73
2022/05/30 09:22:01;;;;;;;3.03;1.50;;;;;;;17.36;60.97;100109.03;5253470;55;1138951;-72
2022/05/30 09:27:12;;;;;;;4.27;2.17;;;;;;;17.41;60.09;100113.88;5241836;56;1139281;-71
2022/05/30 09:32:49;;;;;;;4.03;1.75;;;;;;;17.46;58.43;100116.84;5218151;56;1138972;-73
2022/05/30 09:38:15;;;;;;;5.90;1.62;;;;;;;17.49;57.95;100113.82;5213670;56;1138941;-72
2022/05/30 09:43:34;;;;;;;3.00;1.25;;;;;;;17.44;56.38;100110.33;4951766;59;1139164;-72
2022/05/30 09:48:40;;;;;;;5.67;3.30;;;;;;;17.48;55.89;100116.16;4956113;59;1139143;-72
2022/05/30 09:53:50;;;;;;;3.10;2.73;;;;;;;17.63;53.25;100112.26;4984170;59;1139030;-73
2022/05/30 09:59:07;;;;;;;2.73;1.37;;;;;;;17.78;54.21;100111.87;4984345;59;1139484;-70
2022/05/30 10:04:33;;;;;;;2.60;1.70;;;;;;;17.76;54.66;100110.72;4982796;58;1139308;-74
2022/05/30 10:10:05;;;;;;;4.50;1.20;;;;;;;17.91;55.81;100107.62;4984106;59;1139066;-71
2022/05/30 10:15:34;;;;;;;2.63;1.10;;;;;;;18.10;54.28;100104.17;4899915;59;1139172;-72
2022/05/30 10:20:46;;;;;;;1.98;1.35;;;;;;;18.40;56.82;100105.12;5114728;56;1137040;-71
2022/05/30 10:32:12;;;;;;;2.33;1.80;;;;;;;18.60;53.58;100098.30;5199353;55;1136896;-69
2022/05/30 10:37:47;;;;;;;3.65;2.02;;;;;;;18.49;56.08;100102.69;5238998;55;1139488;-70
2022/05/30 10:43:12;;;;;;;1.47;1.37;;;;;;;18.21;55.06;100101.91;5235931;55;1139236;-70
2022/05/30 10:48:32;;;;;;;3.87;1.60;;;;;;;17.93;56.74;100116.81;5241089;55;1139029;-73
2022/05/30 10:53:57;;;;;;;2.20;1.67;;;;;;;17.90;58.05;100116.66;5267331;55;1139023;-70
2022/05/30 10:59:26;;;;;;;3.97;1.07;;;;;;;18.03;58.45;100108.55;5308136;55;1138978;-72
2022/05/30 11:04:59;;;;;;;1.03;0.93;;;;;;;18.20;54.18;100114.95;5304381;55;1139370;-73
2022/05/30 11:10:21;;;;;;;3.23;1.80;;;;;;;18.41;53.99;100106.78;5237832;55;1139021;-69
2022/05/30 11:15:46;;;;;;;4.03;1.50;;;;;;;18.63;49.68;100105.97;4934452;59;1139164;-70
2022/05/30 11:21:41;;;;;;;1.12;1.02;;;;;;;18.49;51.26;100112.89;4920446;59;1137075;-68
2022/05/30 11:27:13;;;;;;;2.97;1.60;;;;;;;18.08;52.56;100116.38;4739064;62;1137315;-71
2022/05/30 11:32:55;;;;;;;7.10;1.60;;;;;;;17.64;55.17;100127.33;4926968;59;1138853;-72
2022/05/30 11:38:35;;;;;;;2.83;1.30;;;;;;;17.46;57.10;100130.20;4973176;59;1138971;-72
2022/05/30 11:44:29;;;;;;;1.97;1.50;;;;;;;17.51;57.79;100144.73;4728699;62;1139124;-73
2022/05/30 11:49:51;;;;;;;3.17;1.17;;;;;;;17.33;57.59;100141.45;4684909;59;1138925;-71
2022/05/30 11:55:11;;;;;;;2.77;1.47;;;;;;;17.35;56.13;100154.14;4951871;59;1139486;-72
2022/05/30 12:00:24;;;;;;;1.93;1.10;;;;;;;17.01;56.22;100153.04;4974896;59;1139226;-69
2022/05/30 12:06:09;;;;;;;9.10;5.90;;;;;;;16.59;62.15;100174.57;5036504;58;1139031;-74
2022/05/30 12:11:27;;;;;;;2.97;1.80;;;;;;;15.78;69.13;100182.38;5071868;58;1137029;-68
2022/05/30 12:17:10;;;;;;;10.47;2.93;;;;;;;15.32;70.34;100198.27;5078567;55;1136743;-73
2022/05/30 12:27:40;;;;;;;2.70;1.43;;;;;;;14.73;78.43;100188.69;5248726;55;1139205;-73
2022/05/30 12:32:46;;;;;;;5.28;2.77;;;;;;;14.81;74.78;100164.47;5242914;55;1138924;-73
2022/05/30 12:38:11;;;;;;;13.47;8.60;;;;;;;15.14;76.50;100164.52;5260258;55;1138938;-72
2022/05/30 12:43:43;;;;;;;4.23;1.40;;;;;;;15.57;76.91;100169.97;5263825;55;1141264;-72
2022/05/30 12:48:58;;;;;;;5.97;2.98;;;;;;;16.22;72.29;100163.00;5250234;55;1139043;-72
2022/05/30 12:54:09;;;;;;;2.50;1.93;;;;;;;16.22;72.29;100163.00;5219108;55;1139151;-72
2022/05/30 12:59:29;;;;;;;3.63;2.60;;;;;;;16.57;69.25;100161.05;5225344;56;1139024;-72
2022/05/30 13:04:41;;;;;;;1.70;0.90;;;;;;;16.81;69.61;100160.56;5227532;56;1138989;-72
2022/05/30 13:09:49;;;;;;;2.12;1.92;;;;;;;17.07;68.23;100149.70;5227795;56;1139085;-72
2022/05/30 13:15:02;;;;;;;1.80;1.30;;;;;;;17.17;66.63;100146.33;5230646;55;1138987;-72
2022/05/30 13:20:12;;;;;;;0.97;0.97;;;;;;;17.17;65.35;100146.83;5039152;57;1138980;-72
2022/05/30 13:25:29;;;;;;;3.27;2.70;;;;;;;17.10;66.29;100149.37;5175404;56;1138982;-72
2022/05/30 13:30:37;;;;;;;2.73;1.70;;;;;;;17.15;66.86;100148.34;5177332;56;1138958;-72
2022/05/30 13:35:43;;;;;;;1.27;0.93;;;;;;;17.54;67.81;100152.92;5235786;55;1139160;-72
2022/05/30 13:40:49;;;;;;;2.03;0.80;;;;;;;17.55;59.33;100176.81;5304577;55;1139005;-72
2022/05/30 13:45:57;;;;;;;1.00;1.00;;;;;;;17.32;60.08;100197.75;5304503;55;1138972;-72
2022/05/30 13:51:11;;;;;;;1.10;1.10;;;;;;;16.87;59.58;100193.30;5304147;55;1138931;-72
2022/05/30 13:56:26;;;;;;;3.03;0.80;;;;;;;16.93;61.30;100192.30;5299285;55;1136877;-72
2022/05/30 14:01:39;;;;;;;1.53;0.93;;;;;;;16.83;61.86;100206.64;5304592;55;1136870;-72
2022/05/30 14:06:45;;;;;;;2.58;1.35;;;;;;;16.92;63.26;100205.32;5304533;55;1137136;-72
2022/05/30 14:11:55;;;;;;;1.23;1.00;;;;;;;17.30;64.02;100207.77;5304590;55;1136948;-72
2022/05/30 14:17:01;;;;;;;1.70;1.00;;;;;;;17.48;62.50;100213.76;5303915;55;1136879;-73
2022/05/30 14:22:14;;;;;;;1.83;0.90;;;;;;;17.60;64.16;100215.05;5047843;57;1136870;-72
2022/05/30 14:27:23;;;;;;;1.53;1.00;;;;;;;17.72;61.53;100214.23;5223449;56;1137144;-72
2022/05/30 14:32:33;;;;;;;0.70;0.70;;;;;;;17.86;63.24;100222.38;5223612;56;1136934;-72
2022/05/30 14:37:47;;;;;;;1.30;1.17;;;;;;;18.03;62.40;100222.28;5134239;56;1137207;-72
2022/05/30 14:42:56;;;;;;;1.32;0.95;;;;;;;17.99;62.30;100228.51;5137765;56;1135082;-73
2022/05/30 14:48:15;;;;;;;1.00;0.90;;;;;;;17.98;61.43;100233.53;5214772;56;1138961;-72
2022/05/30 14:53:25;;;;;;;2.10;1.10;;;;;;;17.88;61.89;100238.23;5130219;56;1139054;-72
2022/05/30 14:58:53;;;;;;;1.10;1.10;;;;;;;17.98;65.13;100237.55;5035445;57;1139244;-73
2022/05/30 15:04:12;;;;;;;3.52;1.70;;;;;;;18.25;64.80;100230.88;5130495;56;1139188;-72
2022/05/30 15:09:19;;;;;;;1.80;1.27;;;;;;;18.37;64.33;100246.04;5130620;56;1139257;-72
2022/05/30 15:14:30;;;;;;;2.25;1.30;;;;;;;18.38;64.15;100240.52;5130657;57;1138974;-72
2022/05/30 15:19:36;;;;;;;1.90;1.40;;;;;;;18.12;63.32;100247.52;5187521;56;1138935;-72
2022/05/30 15:25:01;;;;;;;1.33;1.23;;;;;;;17.84;63.72;100251.14;5172086;55;1138997;-72
2022/05/30 15:30:08;;;;;;;1.30;1.30;;;;;;;17.81;64.69;100246.63;5178307;55;1138940;-72
2022/05/30 15:35:14;;;;;;;2.73;1.80;;;;;;;17.90;64.49;100256.28;5164170;56;1139055;-72
2022/05/30 15:40:20;;;;;;;4.03;2.73;;;;;;;17.88;63.04;100263.14;5216424;56;1138963;-73
2022/05/30 15:45:26;;;;;;;5.37;3.20;;;;;;;17.67;59.44;100270.91;5148379;56;1139031;-72
2022/05/30 15:50:34;;;;;;;3.70;1.90;;;;;;;17.57;61.54;100278.23;5182131;56;1139198;-72
2022/05/30 16:01:06;;;;;;;1.37;0.90;;;;;;;17.77;61.77;100273.39;5160427;56;1138973;-72
2022/05/30 16:06:18;;;;;;;4.67;1.62;;;;;;;17.95;55.64;100275.84;5194751;56;1139134;-73
2022/05/30 16:11:20;;;;;;;0.80;0.80;;;;;;;18.00;56.45;100274.83;5220045;56;1138960;-73
2022/05/30 16:16:26;;;;;;;0.75;0.75;;;;;;;18.00;54.53;100278.34;5178357;56;1139023;-73
2022/05/30 16:21:32;;;;;;;5.40;0.90;;;;;;;17.98;53.71;100279.52;5228815;56;1138952;-72
2022/05/30 16:26:41;;;;;;;2.07;1.00;;;;;;;17.86;55.04;100278.56;5228779;56;1138968;-73
2022/05/30 16:31:47;;;;;;;2.30;1.20;;;;;;;17.63;54.26;100292.78;5225005;56;1136922;-73
2022/05/30 16:36:54;;;;;;;1.40;1.30;;;;;;;17.32;55.88;100293.48;5275558;55;1136939;-73
2022/05/30 16:42:01;;;;;;;2.23;0.97;;;;;;;17.16;56.46;100295.66;5153502;55;1137096;-73
2022/05/30 16:47:07;;;;;;;2.00;0.80;;;;;;;17.07;57.50;100299.34;5161446;56;1136211;-72
2022/05/30 16:52:14;;;;;;;1.20;1.20;;;;;;;17.21;57.59;100304.52;4932065;59;1136993;-73
2022/05/30 16:57:21;;;;;;;0.77;0.50;;;;;;;17.40;58.50;100302.84;4885087;59;1137020;-73
2022/05/30 17:02:27;;;;;;;0.63;0.57;;;;;;;17.62;56.70;100305.31;4961963;59;1136958;-73
2022/05/30 17:07:32;;;;;;;2.40;0.50;;;;;;;17.65;56.35;100313.03;4954095;59;1136984;-72
2022/05/30 17:12:38;;;;;;;1.13;0.50;;;;;;;17.71;55.25;100314.21;5069819;58;1137025;-73
2022/05/30 17:17:44;;;;;;;0.70;0.63;;;;;;;17.62;53.07;100317.85;5035371;57;1136930;-73
2022/05/30 17:22:50;;;;;;;4.27;0.53;;;;;;;17.43;53.31;100321.20;5174256;56;1136888;-73
2022/05/30 17:33:20;;;;;;;0.87;0.73;;;;;;;17.07;54.32;100334.08;5118026;57;1137166;-73
2022/05/30 17:38:26;;;;;;;0.70;0.70;;;;;;;16.87;55.50;100331.36;5127123;56;1134918;-73
2022/05/30 17:43:32;;;;;;;1.30;0.70;;;;;;;16.72;55.91;100337.00;5171960;56;21096;-73
2022/05/30 17:49:11;;;;;;;1.57;0.70;;;;;;;16.49;55.71;100324.23;5205098;56;1134761;-72
2022/05/30 17:54:19;;;;;;;0.60;0.60;;;;;;;16.36;56.83;100340.34;5192215;56;1139044;-72
2022/05/30 17:59:27;;;;;;;0.73;0.50;;;;;;;16.16;57.56;100341.11;5185465;56;1138972;-72
2022/05/30 18:04:33;;;;;;;1.67;0.60;;;;;;;15.95;58.23;100356.64;5155315;56;1139071;-72
2022/05/30 18:10:01;;;;;;;0.60;0.60;;;;;;;15.68;59.03;100357.14;5197179;55;1139432;-72
2022/05/30 18:15:34;;;;;;;0.87;0.87;;;;;;;15.47;59.42;100357.45;5227971;55;1138838;-72
2022/05/30 18:20:40;;;;;;;1.70;0.80;;;;;;;15.29;59.91;100366.44;5233519;55;1138963;-73
2022/05/30 18:25:46;;;;;;;1.83;0.90;;;;;;;15.20;60.52;100376.20;5179611;55;1139121;-73
2022/05/30 18:31:02;;;;;;;2.97;0.80;;;;;;;15.06;60.92;100377.56;5245814;55;1138982;-72
2022/05/30 18:36:23;;;;;;;0.77;0.77;;;;;;;14.93;61.22;100377.09;5204427;55;1139004;-72
2022/05/30 18:41:45;;;;;;;2.67;1.50;;;;;;;14.84;61.50;100382.47;5188468;56;1139131;-72
2022/05/30 18:46:58;;;;;;;1.60;1.10;;;;;;;14.80;61.71;100386.44;5156647;56;1139032;-72
2022/05/30 18:52:03;;;;;;;;;;;;;;;14.76;61.85;100395.20;5174968;56;1139558;-73
2022/05/30 18:57:13;;;;;;;0.83;0.80;;;;;;;14.65;62.12;100404.24;5138423;56;974367;-72
2022/05/30 19:02:21;;;;;;;0.80;0.80;;;;;;;14.52;62.63;100402.39;5186474;56;1135035;-72
2022/05/30 19:07:27;;;;;;;0.93;0.90;;;;;;;14.48;62.94;100416.16;5182698;56;1136860;-72
2022/05/30 19:12:36;;;;;;;1.20;0.97;;;;;;;14.43;63.25;100428.56;5189368;56;1136910;-72
2022/05/30 19:17:42;;;;;;;2.52;1.55;;;;;;;14.34;63.43;100432.08;5177144;56;1137467;-72
2022/05/30 19:22:52;;;;;;;13.17;4.80;;;;;;;14.29;63.69;100436.49;5142340;57;1136764;-72
2022/05/30 19:28:02;;;;;;;10.43;4.63;;;;;;;14.29;64.09;100448.46;5142168;57;1138944;-71
2022/05/30 19:33:09;;;;;;;1.57;1.20;;;;;;;14.30;64.28;100448.81;5181945;56;1139026;-72
2022/05/30 19:38:19;;;;;;;17.25;13.10;;;;;;;14.21;64.51;100461.63;5228298;56;1136897;-72
2022/05/30 19:43:26;;;;;;;3.73;3.43;;;;;;;14.12;64.70;100469.64;5223583;56;1141148;-71
2022/05/30 19:48:32;;;;;;;3.13;2.73;;;;;;;14.03;64.94;100470.02;5228362;56;1137032;-72
2022/05/30 19:53:38;;;;;;;3.53;1.70;;;;;;;13.99;65.35;100474.77;5228897;56;1137212;-74
2022/05/30 19:58:44;;;;;;;1.93;1.73;;;;;;;13.88;65.55;100478.08;5167683;56;1136850;-73
2022/05/30 20:03:50;;;;;;;5.43;1.93;;;;;;;13.89;66.10;100477.11;5092216;57;1137091;-72
2022/05/30 20:08:56;;;;;;;1.80;1.70;;;;;;;13.92;66.14;100476.80;5131467;56;1134857;-74
2022/05/30 20:14:03;;;;;;;2.92;1.65;;;;;;;13.81;66.22;100481.78;5152376;56;1134812;-72
2022/05/30 20:19:11;;;;;;;2.93;1.83;;;;;;;13.65;66.63;100491.64;5153029;56;1138946;-72
2022/05/30 20:24:17;;;;;;;12.77;6.93;;;;;;;13.48;67.38;100494.14;5113771;57;1138929;-72
2022/05/30 20:29:23;;;;;;;7.22;4.42;;;;;;;13.35;67.84;100487.28;5174469;56;1141123;-72
2022/05/30 20:34:29;;;;;;;2.80;1.97;;;;;;;13.37;68.19;100490.64;5167045;56;1139176;-72
2022/05/30 20:39:35;;;;;;;10.98;6.75;;;;;;;13.34;68.47;100494.89;5196644;56;1138995;-72
2022/05/30 20:44:40;;;;;;;23.60;11.80;;;;;;;13.46;69.05;100492.95;5226349;56;1141082;-72
2022/05/30 20:49:46;;;;;;;19.10;11.53;;;;;;;13.55;69.34;100493.47;5196733;56;1143164;-72
2022/05/30 20:54:52;;;;;;;10.57;6.47;;;;;;;13.59;69.14;100498.02;5195332;56;1143106;-72
2022/05/30 20:59:58;;;;;;;18.27;9.27;;;;;;;13.39;68.91;100507.77;5215702;56;1141130;-72
2022/05/30 21:05:07;;;;;;;9.23;4.97;;;;;;;13.21;69.39;100519.55;5216023;56;1141043;-72
2022/05/30 21:10:17;;;;;;;26.63;17.00;;;;;;;13.09;69.84;100524.58;5173730;56;1138974;-73
2022/05/30 21:15:25;;;;;;;36.17;17.13;;;;;;;13.09;70.72;100520.60;5204600;56;1143162;-72
2022/05/30 21:20:38;;;;;;;24.70;10.73;;;;;;;13.16;71.57;100523.56;5142560;56;1143209;-72
2022/05/30 21:25:44;;;;;;;28.15;10.50;;;;;;;13.16;71.74;100528.39;5218544;56;1143123;-72
2022/05/30 21:30:53;;;;;;;10.60;5.40;;;;;;;13.14;71.77;100534.30;5218105;56;1143135;-72
2022/05/30 21:36:03;;;;;;;6.37;4.67;;;;;;;13.17;71.93;100543.84;5124843;57;1141114;-73
2022/05/30 21:41:08;;;;;;;29.87;13.62;;;;;;;13.18;72.09;100546.85;5130024;57;1138492;-72
2022/05/30 21:46:14;;;;;;;26.53;14.67;;;;;;;13.14;72.20;100549.41;5139190;56;1143164;-72
2022/05/30 21:51:20;;;;;;;22.93;15.80;;;;;;;12.92;72.32;100555.74;5204131;56;1143266;-72
2022/05/30 21:56:30;;;;;;;56.30;22.53;;;;;;;12.76;72.65;100557.55;5130080;56;1143094;-72
2022/05/30 22:01:36;;;;;;;9.67;5.07;;;;;;;12.71;73.37;100549.14;5136147;56;1143330;-72
2022/05/30 22:06:42;;;;;;;7.00;4.70;;;;;;;12.74;73.59;100556.84;5142418;56;1139044;-72
2022/05/30 22:11:48;;;;;;;6.17;3.63;;;;;;;12.75;73.63;100553.70;5142356;57;1139260;-72
2022/05/30 22:16:53;;;;;;;4.40;3.17;;;;;;;12.77;74.05;100549.11;5145792;56;1138920;-71
2022/05/30 22:21:59;;;;;;;9.60;4.43;;;;;;;12.78;74.06;100559.59;5213043;55;1138910;-72
2022/05/30 22:27:09;;;;;;;24.30;10.57;;;;;;;12.63;73.34;100567.55;5142527;56;1139175;-71
2022/05/30 22:32:14;;;;;;;18.97;10.53;;;;;;;12.40;74.00;100572.61;5129457;56;1143181;-72
2022/05/30 22:37:21;;;;;;;32.10;15.27;;;;;;;12.33;74.52;100573.63;5142240;57;1143171;-72
2022/05/30 22:42:29;;;;;;;112.83;30.13;;;;;;;12.17;74.80;100575.88;5146962;56;1143189;-72
2022/05/30 22:47:35;;;;;;;49.03;14.95;;;;;;;12.18;75.47;100576.23;5198871;56;1145178;-72
2022/05/30 22:52:41;;;;;;;43.87;11.53;;;;;;;12.23;75.68;100576.20;5142201;57;1143435;-72
2022/05/30 22:57:47;;;;;;;19.73;6.73;;;;;;;12.30;75.66;100576.53;5142118;56;1143146;-72
2022/05/30 23:02:54;;;;;;;33.40;10.43;;;;;;;12.32;75.59;100575.44;5130449;56;1141122;-72
2022/05/30 23:08:00;;;;;;;33.07;16.13;;;;;;;12.33;75.75;100579.78;5130106;57;1141128;-72
2022/05/30 23:13:12;;;;;;;27.10;15.00;;;;;;;12.24;75.44;100579.20;5130351;57;1141070;-72
2022/05/30 23:18:18;;;;;;;16.50;9.57;;;;;;;12.10;75.60;100587.95;5121877;57;1141201;-72
2022/05/30 23:23:25;;;;;;;17.13;9.20;;;;;;;11.99;75.55;100592.82;5125692;57;1139241;-72
2022/05/30 23:28:32;;;;;;;39.50;17.77;;;;;;;11.87;75.77;100597.81;5134902;57;1139015;-72
2022/05/30 23:33:38;;;;;;;30.93;16.73;;;;;;;11.85;76.37;100595.28;5188312;56;1141097;-72
2022/05/30 23:38:43;;;;;;;45.50;18.70;;;;;;;11.78;76.23;100599.86;5227812;56;1141249;-72
2022/05/30 23:49:13;;;;;;;31.68;11.88;;;;;;;11.77;76.58;100595.53;5142009;56;1141027;-72
2022/05/30 23:54:20;;;;;;;74.20;35.43;;;;;;;11.79;76.79;100598.42;5091792;57;1141133;-72
2022/05/30 23:59:26;;;;;;;47.90;25.50;;;;;;;11.70;76.42;100610.23;5141926;56;1140931;-72
